sensor_id;sensor_type;location;lat;lon;timestamp;temperature;humidity
23120;DHT22;11729;50.836;4.330;2022-07-29T00:02:23;20.80;99.90
23120;DHT22;11729;50.836;4.330;2022-07-29T00:04:49;20.80;99.90
23120;DHT22;11729;50.836;4.330;2022-07-29T00:07:14;20.90;99.90
23120;DHT22;11729;50.836;4.330;2022-07-29T00:09:40;20.80;99.90
23120;DHT22;11729;50.836;4.330;2022-07-29T00:12:06;20.80;99.90
23120;DHT22;11729;50.836;4.330;2022-07-29T00:14:31;20.80;99.90
23120;DHT22;11729;50.836;4.330;2022-07-29T00:16:57;20.90;99.90
23120;DHT22;11729;50.836;4.330;2022-07-29T00:19:23;20.90;99.90
23120;DHT22;11729;50.836;4.330;2022-07-29T00:21:48;20.70;99.90
23120;DHT22;11729;50.836;4.330;2022-07-29T00:24:14;20.60;99.90
23120;DHT22;11729;50.836;4.330;2022-07-29T00:26:39;20.70;99.90
23120;DHT22;11729;50.836;4.330;2022-07-29T00:29:05;20.60;99.90
23120;DHT22;11729;50.836;4.330;2022-07-29T00:31:31;20.60;99.90
23120;DHT22;11729;50.836;4.330;2022-07-29T00:33:57;20.70;99.90
23120;DHT22;11729;50.836;4.330;2022-07-29T00:36:22;20.70;99.90
23120;DHT22;11729;50.836;4.330;2022-07-29T00:38:49;20.70;99.90
23120;DHT22;11729;50.836;4.330;2022-07-29T00:41:16;20.60;99.90
23120;DHT22;11729;50.836;4.330;2022-07-29T00:43:43;20.60;99.90
23120;DHT22;11729;50.836;4.330;2022-07-29T00:46:09;20.60;99.90
23120;DHT22;11729;50.836;4.330;2022-07-29T00:48:35;20.50;99.90
23120;DHT22;11729;50.836;4.330;2022-07-29T00:51:02;20.20;99.90
23120;DHT22;11729;50.836;4.330;2022-07-29T00:53:29;20.20;99.90
23120;DHT22;11729;50.836;4.330;2022-07-29T00:55:56;20.20;99.90
23120;DHT22;11729;50.836;4.330;2022-07-29T00:58:22;20.20;99.90
23120;DHT22;11729;50.836;4.330;2022-07-29T01:00:48;20.10;99.90
23120;DHT22;11729;50.836;4.330;2022-07-29T01:03:14;20.00;99.90
23120;DHT22;11729;50.836;4.330;2022-07-29T01:05:41;20.00;99.90
23120;DHT22;11729;50.836;4.330;2022-07-29T01:08:08;20.10;99.90
23120;DHT22;11729;50.836;4.330;2022-07-29T01:10:36;20.10;99.90
23120;DHT22;11729;50.836;4.330;2022-07-29T01:13:02;20.10;99.90
23120;DHT22;11729;50.836;4.330;2022-07-29T01:15:28;19.90;99.90
23120;DHT22;11729;50.836;4.330;2022-07-29T01:26:41;19.90;99.90
23120;DHT22;11729;50.836;4.330;2022-07-29T01:32:08;20.00;99.90
23120;DHT22;11729;50.836;4.330;2022-07-29T01:34:44;20.00;99.90
23120;DHT22;11729;50.836;4.330;2022-07-29T01:39:54;19.80;99.90
23120;DHT22;11729;50.836;4.330;2022-07-29T01:42:36;19.80;99.90
23120;DHT22;11729;50.836;4.330;2022-07-29T01:47:44;19.80;99.90
23120;DHT22;11729;50.836;4.330;2022-07-29T01:50:14;19.70;99.90
23120;DHT22;11729;50.836;4.330;2022-07-29T01:52:54;19.50;99.90
23120;DHT22;11729;50.836;4.330;2022-07-29T01:55:25;19.70;99.90
23120;DHT22;11729;50.836;4.330;2022-07-29T01:57:52;19.70;99.90
23120;DHT22;11729;50.836;4.330;2022-07-29T02:00:19;19.70;99.90
23120;DHT22;11729;50.836;4.330;2022-07-29T02:02:46;19.80;99.90
23120;DHT22;11729;50.836;4.330;2022-07-29T02:05:15;19.60;99.90
23120;DHT22;11729;50.836;4.330;2022-07-29T02:07:43;19.60;99.90
23120;DHT22;11729;50.836;4.330;2022-07-29T02:10:11;19.40;99.90
23120;DHT22;11729;50.836;4.330;2022-07-29T02:12:39;19.30;99.90
23120;DHT22;11729;50.836;4.330;2022-07-29T02:15:06;19.30;99.90
23120;DHT22;11729;50.836;4.330;2022-07-29T02:17:43;19.20;99.90
23120;DHT22;11729;50.836;4.330;2022-07-29T02:20:12;19.10;99.90
23120;DHT22;11729;50.836;4.330;2022-07-29T02:22:39;18.90;99.90
23120;DHT22;11729;50.836;4.330;2022-07-29T02:25:06;19.10;99.90
23120;DHT22;11729;50.836;4.330;2022-07-29T02:27:34;18.90;99.90
23120;DHT22;11729;50.836;4.330;2022-07-29T02:30:01;19.10;99.90
23120;DHT22;11729;50.836;4.330;2022-07-29T02:32:29;19.10;99.90
23120;DHT22;11729;50.836;4.330;2022-07-29T02:34:56;19.10;99.90
23120;DHT22;11729;50.836;4.330;2022-07-29T02:37:26;19.00;99.90
23120;DHT22;11729;50.836;4.330;2022-07-29T02:39:53;19.00;99.90
23120;DHT22;11729;50.836;4.330;2022-07-29T02:42:21;19.00;99.90
23120;DHT22;11729;50.836;4.330;2022-07-29T02:44:48;19.00;99.90
23120;DHT22;11729;50.836;4.330;2022-07-29T02:47:18;19.00;99.90
23120;DHT22;11729;50.836;4.330;2022-07-29T02:52:37;18.90;99.90
23120;DHT22;11729;50.836;4.330;2022-07-29T02:57:59;18.80;99.90
23120;DHT22;11729;50.836;4.330;2022-07-29T03:00:28;18.80;99.90
23120;DHT22;11729;50.836;4.330;2022-07-29T03:02:54;18.70;99.90
23120;DHT22;11729;50.836;4.330;2022-07-29T03:05:21;18.70;99.90
23120;DHT22;11729;50.836;4.330;2022-07-29T03:07:51;18.60;99.90
23120;DHT22;11729;50.836;4.330;2022-07-29T03:10:18;18.60;99.90
23120;DHT22;11729;50.836;4.330;2022-07-29T03:12:44;18.60;99.90
23120;DHT22;11729;50.836;4.330;2022-07-29T03:15:11;18.60;99.90
23120;DHT22;11729;50.836;4.330;2022-07-29T03:17:37;18.40;99.90
23120;DHT22;11729;50.836;4.330;2022-07-29T03:20:04;18.40;99.90
23120;DHT22;11729;50.836;4.330;2022-07-29T03:22:31;18.50;99.90
23120;DHT22;11729;50.836;4.330;2022-07-29T03:24:57;18.50;99.90
23120;DHT22;11729;50.836;4.330;2022-07-29T03:27:24;18.40;99.90
23120;DHT22;11729;50.836;4.330;2022-07-29T03:29:49;18.40;99.90
23120;DHT22;11729;50.836;4.330;2022-07-29T03:32:15;18.60;99.90
23120;DHT22;11729;50.836;4.330;2022-07-29T03:34:40;18.50;99.90
23120;DHT22;11729;50.836;4.330;2022-07-29T03:37:06;18.40;99.90
23120;DHT22;11729;50.836;4.330;2022-07-29T03:39:36;18.50;99.90
23120;DHT22;11729;50.836;4.330;2022-07-29T03:42:04;18.50;99.90
23120;DHT22;11729;50.836;4.330;2022-07-29T03:44:31;18.50;99.90
23120;DHT22;11729;50.836;4.330;2022-07-29T03:46:59;18.60;99.90
23120;DHT22;11729;50.836;4.330;2022-07-29T03:49:26;18.50;99.90
23120;DHT22;11729;50.836;4.330;2022-07-29T03:51:52;18.40;99.90
23120;DHT22;11729;50.836;4.330;2022-07-29T03:54:18;18.30;99.90
23120;DHT22;11729;50.836;4.330;2022-07-29T03:56:46;18.20;99.90
23120;DHT22;11729;50.836;4.330;2022-07-29T03:59:15;18.20;99.90
23120;DHT22;11729;50.836;4.330;2022-07-29T04:01:41;18.30;99.90
23120;DHT22;11729;50.836;4.330;2022-07-29T04:04:07;18.40;99.90
23120;DHT22;11729;50.836;4.330;2022-07-29T04:06:40;18.20;99.90
23120;DHT22;11729;50.836;4.330;2022-07-29T04:09:07;18.30;99.90
23120;DHT22;11729;50.836;4.330;2022-07-29T04:11:33;18.30;99.90
23120;DHT22;11729;50.836;4.330;2022-07-29T04:13:58;18.30;99.90
23120;DHT22;11729;50.836;4.330;2022-07-29T04:16:24;18.30;99.90
23120;DHT22;11729;50.836;4.330;2022-07-29T04:18:49;18.30;99.90
23120;DHT22;11729;50.836;4.330;2022-07-29T04:21:15;18.50;99.90
23120;DHT22;11729;50.836;4.330;2022-07-29T04:23:41;18.50;99.90
23120;DHT22;11729;50.836;4.330;2022-07-29T04:26:06;18.60;99.90
23120;DHT22;11729;50.836;4.330;2022-07-29T04:28:34;18.30;99.90
23120;DHT22;11729;50.836;4.330;2022-07-29T04:31:00;18.30;99.90
23120;DHT22;11729;50.836;4.330;2022-07-29T04:33:27;18.30;99.90
23120;DHT22;11729;50.836;4.330;2022-07-29T04:35:52;18.20;99.90
23120;DHT22;11729;50.836;4.330;2022-07-29T04:38:18;18.20;99.90
23120;DHT22;11729;50.836;4.330;2022-07-29T04:40:43;18.10;99.90
23120;DHT22;11729;50.836;4.330;2022-07-29T04:43:09;18.40;99.90
23120;DHT22;11729;50.836;4.330;2022-07-29T04:45:35;18.50;99.90
23120;DHT22;11729;50.836;4.330;2022-07-29T04:48:00;18.40;99.90
23120;DHT22;11729;50.836;4.330;2022-07-29T04:50:26;18.40;99.90
23120;DHT22;11729;50.836;4.330;2022-07-29T04:52:52;18.30;99.90
23120;DHT22;11729;50.836;4.330;2022-07-29T04:55:17;18.20;99.90
23120;DHT22;11729;50.836;4.330;2022-07-29T04:57:44;18.30;99.90
23120;DHT22;11729;50.836;4.330;2022-07-29T05:00:10;18.30;99.90
23120;DHT22;11729;50.836;4.330;2022-07-29T05:02:36;18.40;99.90
23120;DHT22;11729;50.836;4.330;2022-07-29T05:05:01;18.30;99.90
23120;DHT22;11729;50.836;4.330;2022-07-29T05:07:27;18.30;99.90
23120;DHT22;11729;50.836;4.330;2022-07-29T05:09:52;18.50;99.90
23120;DHT22;11729;50.836;4.330;2022-07-29T05:12:18;18.50;99.90
23120;DHT22;11729;50.836;4.330;2022-07-29T05:14:44;18.60;99.90
23120;DHT22;11729;50.836;4.330;2022-07-29T05:17:10;18.60;99.90
23120;DHT22;11729;50.836;4.330;2022-07-29T05:19:35;18.50;99.90
23120;DHT22;11729;50.836;4.330;2022-07-29T05:22:01;18.50;99.90
23120;DHT22;11729;50.836;4.330;2022-07-29T05:24:26;18.70;99.90
23120;DHT22;11729;50.836;4.330;2022-07-29T05:26:52;18.60;99.90
23120;DHT22;11729;50.836;4.330;2022-07-29T05:29:18;18.60;99.90
23120;DHT22;11729;50.836;4.330;2022-07-29T05:31:43;18.90;99.90
23120;DHT22;11729;50.836;4.330;2022-07-29T05:34:09;19.10;99.90
23120;DHT22;11729;50.836;4.330;2022-07-29T05:36:35;19.30;99.90
23120;DHT22;11729;50.836;4.330;2022-07-29T05:39:00;19.30;99.90
23120;DHT22;11729;50.836;4.330;2022-07-29T05:41:26;19.40;99.90
23120;DHT22;11729;50.836;4.330;2022-07-29T05:43:51;19.40;99.90
23120;DHT22;11729;50.836;4.330;2022-07-29T05:46:17;19.50;99.90
23120;DHT22;11729;50.836;4.330;2022-07-29T05:48:43;19.70;99.90
23120;DHT22;11729;50.836;4.330;2022-07-29T05:51:08;19.60;99.90
23120;DHT22;11729;50.836;4.330;2022-07-29T05:53:34;19.50;99.90
23120;DHT22;11729;50.836;4.330;2022-07-29T05:56:03;19.60;99.90
23120;DHT22;11729;50.836;4.330;2022-07-29T05:58:30;19.90;99.90
23120;DHT22;11729;50.836;4.330;2022-07-29T06:00:55;20.00;99.90
23120;DHT22;11729;50.836;4.330;2022-07-29T06:03:24;20.00;99.90
23120;DHT22;11729;50.836;4.330;2022-07-29T06:05:50;20.70;99.90
23120;DHT22;11729;50.836;4.330;2022-07-29T06:08:16;22.20;99.90
23120;DHT22;11729;50.836;4.330;2022-07-29T06:10:42;23.80;99.90
23120;DHT22;11729;50.836;4.330;2022-07-29T06:13:08;25.50;99.60
23120;DHT22;11729;50.836;4.330;2022-07-29T06:15:34;26.60;96.00
23120;DHT22;11729;50.836;4.330;2022-07-29T06:18:00;27.80;92.20
23120;DHT22;11729;50.836;4.330;2022-07-29T06:20:25;28.70;90.20
23120;DHT22;11729;50.836;4.330;2022-07-29T06:22:52;29.40;84.90
23120;DHT22;11729;50.836;4.330;2022-07-29T06:25:17;29.80;79.30
23120;DHT22;11729;50.836;4.330;2022-07-29T06:27:43;30.00;76.40
23120;DHT22;11729;50.836;4.330;2022-07-29T06:30:09;30.10;76.10
23120;DHT22;11729;50.836;4.330;2022-07-29T06:32:35;30.60;74.30
23120;DHT22;11729;50.836;4.330;2022-07-29T06:35:01;31.10;72.90
23120;DHT22;11729;50.836;4.330;2022-07-29T06:37:26;31.60;70.00
23120;DHT22;11729;50.836;4.330;2022-07-29T06:39:53;32.00;69.00
23120;DHT22;11729;50.836;4.330;2022-07-29T06:42:43;32.60;67.80
23120;DHT22;11729;50.836;4.330;2022-07-29T06:45:11;33.30;64.60
23120;DHT22;11729;50.836;4.330;2022-07-29T06:47:37;33.50;62.50
23120;DHT22;11729;50.836;4.330;2022-07-29T06:50:03;34.10;60.80
23120;DHT22;11729;50.836;4.330;2022-07-29T06:52:29;34.70;59.10
23120;DHT22;11729;50.836;4.330;2022-07-29T06:54:55;35.20;58.40
23120;DHT22;11729;50.836;4.330;2022-07-29T06:57:21;35.80;56.90
23120;DHT22;11729;50.836;4.330;2022-07-29T06:59:47;35.70;56.20
23120;DHT22;11729;50.836;4.330;2022-07-29T07:02:12;34.60;55.80
23120;DHT22;11729;50.836;4.330;2022-07-29T07:04:38;33.00;58.00
23120;DHT22;11729;50.836;4.330;2022-07-29T07:07:04;31.90;60.50
23120;DHT22;11729;50.836;4.330;2022-07-29T07:09:29;30.30;64.00
23120;DHT22;11729;50.836;4.330;2022-07-29T07:11:55;29.40;66.50
23120;DHT22;11729;50.836;4.330;2022-07-29T07:14:20;29.10;69.00
23120;DHT22;11729;50.836;4.330;2022-07-29T07:16:46;28.50;71.00
23120;DHT22;11729;50.836;4.330;2022-07-29T07:19:12;27.90;74.30
23120;DHT22;11729;50.836;4.330;2022-07-29T07:21:37;27.50;75.20
23120;DHT22;11729;50.836;4.330;2022-07-29T07:24:03;27.00;78.50
23120;DHT22;11729;50.836;4.330;2022-07-29T07:26:29;26.40;82.10
23120;DHT22;11729;50.836;4.330;2022-07-29T07:28:54;27.20;83.40
23120;DHT22;11729;50.836;4.330;2022-07-29T07:31:20;28.50;79.10
23120;DHT22;11729;50.836;4.330;2022-07-29T07:33:46;29.90;73.30
23120;DHT22;11729;50.836;4.330;2022-07-29T07:36:11;30.80;70.90
23120;DHT22;11729;50.836;4.330;2022-07-29T07:38:37;31.60;67.80
23120;DHT22;11729;50.836;4.330;2022-07-29T07:41:03;32.50;64.10
23120;DHT22;11729;50.836;4.330;2022-07-29T07:43:28;33.50;63.40
23120;DHT22;11729;50.836;4.330;2022-07-29T07:45:54;34.60;60.20
23120;DHT22;11729;50.836;4.330;2022-07-29T07:48:20;34.90;57.80
23120;DHT22;11729;50.836;4.330;2022-07-29T07:50:45;35.40;56.80
23120;DHT22;11729;50.836;4.330;2022-07-29T07:53:11;35.40;55.70
23120;DHT22;11729;50.836;4.330;2022-07-29T07:55:41;36.00;54.80
23120;DHT22;11729;50.836;4.330;2022-07-29T07:58:07;36.00;54.70
23120;DHT22;11729;50.836;4.330;2022-07-29T08:00:32;36.00;54.90
23120;DHT22;11729;50.836;4.330;2022-07-29T08:02:58;36.50;52.90
23120;DHT22;11729;50.836;4.330;2022-07-29T08:05:23;36.40;51.70
23120;DHT22;11729;50.836;4.330;2022-07-29T08:07:49;36.40;52.90
23120;DHT22;11729;50.836;4.330;2022-07-29T08:10:16;36.70;51.80
23120;DHT22;11729;50.836;4.330;2022-07-29T08:13:09;36.80;50.60
23120;DHT22;11729;50.836;4.330;2022-07-29T08:15:36;36.70;51.00
23120;DHT22;11729;50.836;4.330;2022-07-29T08:18:03;36.90;51.40
23120;DHT22;11729;50.836;4.330;2022-07-29T08:20:29;37.30;50.60
23120;DHT22;11729;50.836;4.330;2022-07-29T08:22:55;37.90;49.90
23120;DHT22;11729;50.836;4.330;2022-07-29T08:25:20;38.40;49.50
23120;DHT22;11729;50.836;4.330;2022-07-29T08:27:47;38.30;47.10
23120;DHT22;11729;50.836;4.330;2022-07-29T08:30:13;38.00;48.00
23120;DHT22;11729;50.836;4.330;2022-07-29T08:32:39;37.90;48.90
23120;DHT22;11729;50.836;4.330;2022-07-29T08:35:05;37.40;49.00
23120;DHT22;11729;50.836;4.330;2022-07-29T08:37:31;37.50;48.40
23120;DHT22;11729;50.836;4.330;2022-07-29T08:39:56;37.00;49.50
23120;DHT22;11729;50.836;4.330;2022-07-29T08:42:22;37.40;49.80
23120;DHT22;11729;50.836;4.330;2022-07-29T08:44:48;37.90;48.60
23120;DHT22;11729;50.836;4.330;2022-07-29T08:47:14;38.10;48.40
23120;DHT22;11729;50.836;4.330;2022-07-29T08:49:40;37.60;48.40
23120;DHT22;11729;50.836;4.330;2022-07-29T08:52:06;37.20;48.40
23120;DHT22;11729;50.836;4.330;2022-07-29T08:54:32;37.30;48.50
23120;DHT22;11729;50.836;4.330;2022-07-29T08:56:59;37.60;47.50
23120;DHT22;11729;50.836;4.330;2022-07-29T08:59:27;37.30;46.90
23120;DHT22;11729;50.836;4.330;2022-07-29T09:01:54;37.60;47.70
23120;DHT22;11729;50.836;4.330;2022-07-29T09:04:20;37.50;47.60
23120;DHT22;11729;50.836;4.330;2022-07-29T09:06:48;37.20;48.70
23120;DHT22;11729;50.836;4.330;2022-07-29T09:09:14;36.20;49.60
23120;DHT22;11729;50.836;4.330;2022-07-29T09:11:41;36.60;48.70
23120;DHT22;11729;50.836;4.330;2022-07-29T09:14:07;36.80;48.00
23120;DHT22;11729;50.836;4.330;2022-07-29T09:16:54;36.50;48.40
23120;DHT22;11729;50.836;4.330;2022-07-29T09:19:25;36.90;47.90
23120;DHT22;11729;50.836;4.330;2022-07-29T09:21:52;36.50;48.50
23120;DHT22;11729;50.836;4.330;2022-07-29T09:24:43;36.70;48.60
23120;DHT22;11729;50.836;4.330;2022-07-29T09:27:12;36.80;48.30
23120;DHT22;11729;50.836;4.330;2022-07-29T09:29:43;37.00;46.60
23120;DHT22;11729;50.836;4.330;2022-07-29T09:32:09;36.40;48.10
23120;DHT22;11729;50.836;4.330;2022-07-29T09:34:36;36.50;47.60
23120;DHT22;11729;50.836;4.330;2022-07-29T09:37:02;36.80;47.70
23120;DHT22;11729;50.836;4.330;2022-07-29T09:39:37;36.80;46.90
23120;DHT22;11729;50.836;4.330;2022-07-29T09:42:06;37.20;47.30
23120;DHT22;11729;50.836;4.330;2022-07-29T09:44:49;36.60;47.10
23120;DHT22;11729;50.836;4.330;2022-07-29T09:47:17;37.00;47.00
23120;DHT22;11729;50.836;4.330;2022-07-29T09:49:55;37.20;46.50
23120;DHT22;11729;50.836;4.330;2022-07-29T09:52:24;37.40;46.10
23120;DHT22;11729;50.836;4.330;2022-07-29T09:54:50;37.10;46.20
23120;DHT22;11729;50.836;4.330;2022-07-29T09:57:26;37.30;46.20
23120;DHT22;11729;50.836;4.330;2022-07-29T10:00:13;37.70;45.00
23120;DHT22;11729;50.836;4.330;2022-07-29T10:02:41;37.30;45.80
23120;DHT22;11729;50.836;4.330;2022-07-29T10:07:54;36.70;46.80
23120;DHT22;11729;50.836;4.330;2022-07-29T10:10:27;36.80;45.60
23120;DHT22;11729;50.836;4.330;2022-07-29T10:12:53;36.50;44.90
23120;DHT22;11729;50.836;4.330;2022-07-29T10:15:21;36.40;47.10
23120;DHT22;11729;50.836;4.330;2022-07-29T10:17:47;36.90;46.10
23120;DHT22;11729;50.836;4.330;2022-07-29T10:20:14;37.10;46.20
23120;DHT22;11729;50.836;4.330;2022-07-29T10:22:40;36.90;45.40
23120;DHT22;11729;50.836;4.330;2022-07-29T10:25:08;36.90;45.60
23120;DHT22;11729;50.836;4.330;2022-07-29T10:27:35;36.60;46.30
23120;DHT22;11729;50.836;4.330;2022-07-29T10:30:00;35.70;48.80
23120;DHT22;11729;50.836;4.330;2022-07-29T10:40:26;36.80;47.30
23120;DHT22;11729;50.836;4.330;2022-07-29T10:43:21;37.00;46.20
23120;DHT22;11729;50.836;4.330;2022-07-29T10:45:48;36.20;46.60
23120;DHT22;11729;50.836;4.330;2022-07-29T10:48:15;36.20;47.10
23120;DHT22;11729;50.836;4.330;2022-07-29T10:50:58;36.90;46.80
23120;DHT22;11729;50.836;4.330;2022-07-29T10:53:52;37.10;44.60
23120;DHT22;11729;50.836;4.330;2022-07-29T10:56:31;37.40;44.60
23120;DHT22;11729;50.836;4.330;2022-07-29T11:01:47;38.20;44.20
23120;DHT22;11729;50.836;4.330;2022-07-29T11:04:13;38.00;43.40
23120;DHT22;11729;50.836;4.330;2022-07-29T11:09:23;37.70;42.90
23120;DHT22;11729;50.836;4.330;2022-07-29T11:11:49;37.00;42.50
23120;DHT22;11729;50.836;4.330;2022-07-29T11:14:15;35.80;43.80
23120;DHT22;11729;50.836;4.330;2022-07-29T11:17:02;35.00;43.20
23120;DHT22;11729;50.836;4.330;2022-07-29T11:19:28;34.10;45.10
23120;DHT22;11729;50.836;4.330;2022-07-29T11:21:54;33.60;46.30
23120;DHT22;11729;50.836;4.330;2022-07-29T11:24:23;33.40;46.50
23120;DHT22;11729;50.836;4.330;2022-07-29T11:27:30;33.20;46.30
23120;DHT22;11729;50.836;4.330;2022-07-29T11:29:57;33.40;47.10
23120;DHT22;11729;50.836;4.330;2022-07-29T11:32:36;32.90;47.20
23120;DHT22;11729;50.836;4.330;2022-07-29T11:35:17;33.00;49.80
23120;DHT22;11729;50.836;4.330;2022-07-29T11:37:47;33.80;47.40
23120;DHT22;11729;50.836;4.330;2022-07-29T11:40:32;33.90;46.40
23120;DHT22;11729;50.836;4.330;2022-07-29T11:42:58;34.70;45.60
23120;DHT22;11729;50.836;4.330;2022-07-29T11:45:25;35.10;44.40
23120;DHT22;11729;50.836;4.330;2022-07-29T11:47:55;35.70;44.40
23120;DHT22;11729;50.836;4.330;2022-07-29T11:50:28;36.30;43.00
23120;DHT22;11729;50.836;4.330;2022-07-29T11:52:55;36.30;44.00
23120;DHT22;11729;50.836;4.330;2022-07-29T11:55:22;36.80;41.90
23120;DHT22;11729;50.836;4.330;2022-07-29T12:02:54;37.10;42.10
23120;DHT22;11729;50.836;4.330;2022-07-29T12:05:21;37.30;42.80
23120;DHT22;11729;50.836;4.330;2022-07-29T12:07:48;37.10;42.00
23120;DHT22;11729;50.836;4.330;2022-07-29T12:10:15;35.90;42.80
23120;DHT22;11729;50.836;4.330;2022-07-29T12:12:41;35.00;44.30
23120;DHT22;11729;50.836;4.330;2022-07-29T12:15:11;35.40;43.80
23120;DHT22;11729;50.836;4.330;2022-07-29T12:17:37;35.90;43.70
23120;DHT22;11729;50.836;4.330;2022-07-29T12:20:04;36.00;43.40
23120;DHT22;11729;50.836;4.330;2022-07-29T12:22:35;36.70;42.20
23120;DHT22;11729;50.836;4.330;2022-07-29T12:25:11;37.30;41.40
23120;DHT22;11729;50.836;4.330;2022-07-29T12:27:37;37.60;41.40
23120;DHT22;11729;50.836;4.330;2022-07-29T12:30:14;37.80;41.80
23120;DHT22;11729;50.836;4.330;2022-07-29T12:32:42;38.60;39.80
23120;DHT22;11729;50.836;4.330;2022-07-29T12:35:09;38.70;40.10
23120;DHT22;11729;50.836;4.330;2022-07-29T12:37:37;37.40;41.20
23120;DHT22;11729;50.836;4.330;2022-07-29T12:40:05;36.50;42.10
23120;DHT22;11729;50.836;4.330;2022-07-29T12:42:31;35.50;42.60
23120;DHT22;11729;50.836;4.330;2022-07-29T12:44:57;33.80;44.00
23120;DHT22;11729;50.836;4.330;2022-07-29T12:47:23;33.30;46.70
23120;DHT22;11729;50.836;4.330;2022-07-29T12:49:49;34.50;46.70
23120;DHT22;11729;50.836;4.330;2022-07-29T12:52:33;35.10;44.70
23120;DHT22;11729;50.836;4.330;2022-07-29T12:54:59;35.90;44.20
23120;DHT22;11729;50.836;4.330;2022-07-29T12:57:26;36.60;42.00
23120;DHT22;11729;50.836;4.330;2022-07-29T13:02:28;35.80;43.20
23120;DHT22;11729;50.836;4.330;2022-07-29T13:04:58;35.00;44.80
23120;DHT22;11729;50.836;4.330;2022-07-29T13:07:26;34.50;45.20
23120;DHT22;11729;50.836;4.330;2022-07-29T13:09:52;33.80;46.20
23120;DHT22;11729;50.836;4.330;2022-07-29T13:12:18;33.00;46.10
23120;DHT22;11729;50.836;4.330;2022-07-29T13:14:48;32.50;47.80
23120;DHT22;11729;50.836;4.330;2022-07-29T13:17:20;32.50;48.00
23120;DHT22;11729;50.836;4.330;2022-07-29T13:20:03;33.20;47.70
23120;DHT22;11729;50.836;4.330;2022-07-29T13:22:30;34.40;46.20
23120;DHT22;11729;50.836;4.330;2022-07-29T13:24:57;35.40;45.40
23120;DHT22;11729;50.836;4.330;2022-07-29T13:27:26;36.70;43.90
23120;DHT22;11729;50.836;4.330;2022-07-29T13:29:53;37.60;42.30
23120;DHT22;11729;50.836;4.330;2022-07-29T13:32:22;37.60;41.60
23120;DHT22;11729;50.836;4.330;2022-07-29T13:34:48;38.00;40.90
23120;DHT22;11729;50.836;4.330;2022-07-29T13:37:14;38.90;40.40
23120;DHT22;11729;50.836;4.330;2022-07-29T13:39:40;39.60;40.20
23120;DHT22;11729;50.836;4.330;2022-07-29T13:42:06;39.50;38.60
23120;DHT22;11729;50.836;4.330;2022-07-29T13:44:33;39.20;38.80
23120;DHT22;11729;50.836;4.330;2022-07-29T13:46:58;38.80;39.10
23120;DHT22;11729;50.836;4.330;2022-07-29T13:49:24;37.80;40.30
23120;DHT22;11729;50.836;4.330;2022-07-29T13:51:50;37.20;40.40
23120;DHT22;11729;50.836;4.330;2022-07-29T13:54:16;35.40;42.30
23120;DHT22;11729;50.836;4.330;2022-07-29T13:56:42;34.60;43.50
23120;DHT22;11729;50.836;4.330;2022-07-29T13:59:07;34.20;43.30
23120;DHT22;11729;50.836;4.330;2022-07-29T14:01:34;33.70;45.00
23120;DHT22;11729;50.836;4.330;2022-07-29T14:04:00;33.10;45.30
23120;DHT22;11729;50.836;4.330;2022-07-29T14:06:26;33.10;46.00
23120;DHT22;11729;50.836;4.330;2022-07-29T14:08:51;32.30;46.40
23120;DHT22;11729;50.836;4.330;2022-07-29T14:11:17;31.90;47.10
23120;DHT22;11729;50.836;4.330;2022-07-29T14:13:42;32.00;47.20
23120;DHT22;11729;50.836;4.330;2022-07-29T14:16:08;31.70;48.00
23120;DHT22;11729;50.836;4.330;2022-07-29T14:18:34;31.40;47.20
23120;DHT22;11729;50.836;4.330;2022-07-29T14:20:59;31.20;47.70
23120;DHT22;11729;50.836;4.330;2022-07-29T14:23:25;30.80;48.70
23120;DHT22;11729;50.836;4.330;2022-07-29T14:25:51;30.30;49.80
23120;DHT22;11729;50.836;4.330;2022-07-29T14:28:17;30.20;50.80
23120;DHT22;11729;50.836;4.330;2022-07-29T14:30:42;30.10;50.90
23120;DHT22;11729;50.836;4.330;2022-07-29T14:33:08;30.10;50.30
23120;DHT22;11729;50.836;4.330;2022-07-29T14:35:34;30.20;49.70
23120;DHT22;11729;50.836;4.330;2022-07-29T14:37:59;30.40;49.60
23120;DHT22;11729;50.836;4.330;2022-07-29T14:40:25;30.50;49.30
23120;DHT22;11729;50.836;4.330;2022-07-29T14:42:51;30.60;50.40
23120;DHT22;11729;50.836;4.330;2022-07-29T14:45:17;30.60;48.80
23120;DHT22;11729;50.836;4.330;2022-07-29T14:47:42;30.70;48.60
23120;DHT22;11729;50.836;4.330;2022-07-29T14:50:08;30.70;48.30
23120;DHT22;11729;50.836;4.330;2022-07-29T14:52:34;30.80;48.90
23120;DHT22;11729;50.836;4.330;2022-07-29T14:55:00;30.90;48.20
23120;DHT22;11729;50.836;4.330;2022-07-29T14:57:26;31.00;48.60
23120;DHT22;11729;50.836;4.330;2022-07-29T14:59:51;31.00;49.60
23120;DHT22;11729;50.836;4.330;2022-07-29T15:02:17;30.90;48.80
23120;DHT22;11729;50.836;4.330;2022-07-29T15:04:42;30.90;49.60
23120;DHT22;11729;50.836;4.330;2022-07-29T15:07:10;30.70;50.40
23120;DHT22;11729;50.836;4.330;2022-07-29T15:09:36;30.70;49.20
23120;DHT22;11729;50.836;4.330;2022-07-29T15:12:02;30.40;50.10
23120;DHT22;11729;50.836;4.330;2022-07-29T15:14:28;30.20;50.60
23120;DHT22;11729;50.836;4.330;2022-07-29T15:16:54;30.20;50.60
23120;DHT22;11729;50.836;4.330;2022-07-29T15:19:20;30.30;50.30
23120;DHT22;11729;50.836;4.330;2022-07-29T15:21:45;30.10;49.60
23120;DHT22;11729;50.836;4.330;2022-07-29T15:24:11;29.80;50.60
23120;DHT22;11729;50.836;4.330;2022-07-29T15:26:37;29.50;51.30
23120;DHT22;11729;50.836;4.330;2022-07-29T15:29:02;29.40;52.10
23120;DHT22;11729;50.836;4.330;2022-07-29T15:31:28;29.40;52.00
23120;DHT22;11729;50.836;4.330;2022-07-29T15:33:53;29.10;52.20
23120;DHT22;11729;50.836;4.330;2022-07-29T15:36:19;29.00;53.10
23120;DHT22;11729;50.836;4.330;2022-07-29T15:38:45;28.90;53.30
23120;DHT22;11729;50.836;4.330;2022-07-29T15:41:14;28.90;53.30
23120;DHT22;11729;50.836;4.330;2022-07-29T15:43:48;28.90;53.00
23120;DHT22;11729;50.836;4.330;2022-07-29T15:46:18;29.00;53.40
23120;DHT22;11729;50.836;4.330;2022-07-29T15:49:05;29.00;53.70
23120;DHT22;11729;50.836;4.330;2022-07-29T15:51:31;29.10;53.60
23120;DHT22;11729;50.836;4.330;2022-07-29T15:53:57;29.10;53.20
23120;DHT22;11729;50.836;4.330;2022-07-29T15:56:23;28.90;52.80
23120;DHT22;11729;50.836;4.330;2022-07-29T15:58:49;28.90;53.20
23120;DHT22;11729;50.836;4.330;2022-07-29T16:01:15;29.00;53.10
23120;DHT22;11729;50.836;4.330;2022-07-29T16:03:41;28.90;53.70
23120;DHT22;11729;50.836;4.330;2022-07-29T16:06:06;29.00;53.80
23120;DHT22;11729;50.836;4.330;2022-07-29T16:08:32;29.20;52.70
23120;DHT22;11729;50.836;4.330;2022-07-29T16:10:58;29.20;52.70
23120;DHT22;11729;50.836;4.330;2022-07-29T16:13:23;29.10;52.90
23120;DHT22;11729;50.836;4.330;2022-07-29T16:15:49;29.00;52.70
23120;DHT22;11729;50.836;4.330;2022-07-29T16:18:15;28.90;52.80
23120;DHT22;11729;50.836;4.330;2022-07-29T16:20:42;28.80;52.90